Ogelthorpe, Georgia
Current Conditions -  °F | °C
As of 9:15 AM on Thursday 30 Oct 2014 (Local Time) from KACJ Reporting Station
Clear Clear  
Wind Chill: 54°   Ceiling: Unl
Heat Index: 54°   Visibility: 10mi
Dew Point: 45°   Wind: 10mph
Humidity: 72%   Direction: 10°N
Pressure: 30.08"   Gusts: NA
Location:  32.266°N, 84.1148°W
Report Text: KACJ 301315Z AUTO 01009KT 10SM CLR 12/07 A3008 RMK AO2 LTG DSNT S
Loading
Personal Weather Stations






























Interactive Weather Map
Tropical Storm Tracking
New forecast layout! Learn more

10-Day Weather Forecast

Advertisements
Track Severe Weather on mobile